Time;durP1;ratioP1;P1;durP2;ratioP2;P2;SDS_P1;SDS_P2;PMS_P1;PMS_P2;Temp;Humidity;BMP_temperature;BMP_pressure;BME280_temperature;BME280_humidity;BME280_pressure;Samples;Min_cycle;Max_cycle;Signal;HPM_P1;HPM_P2
2021/11/02 00:02:25;;;;;;;;;;;;;;;;;;5120798;28;19975;-91
2021/11/02 00:04:51;;;;;;;;;;;;;;;;;;5121370;28;19931;-91
2021/11/02 00:07:17;;;;;;;;;;;;;;;;;;5120546;28;19934;-91
2021/11/02 00:09:45;;;;;;;;;;;;;;;;;;5121000;28;19919;-90
2021/11/02 00:12:12;;;;;;;;;;;;;;;;;;5120549;28;19926;-91
2021/11/02 00:14:38;;;;;;;;;;;;;;;;;;5121271;28;19920;-91
2021/11/02 00:17:08;;;;;;;;;;;;;;;;;;5120469;28;19927;-90
2021/11/02 00:19:35;;;;;;;;;;;;;;;;;;5119518;28;19919;-91
2021/11/02 00:22:13;;;;;;;;;;;;;;;;;;5120032;28;19919;-91
2021/11/02 00:24:55;;;;;;;;;;;;;;;;;;5119998;28;19924;-90
2021/11/02 00:27:21;;;;;;;;;;;;;;;;;;5120843;28;19931;-91
2021/11/02 00:29:47;;;;;;;;;;;;;;;;;;5121172;28;19927;-90
2021/11/02 00:32:14;;;;;;;;;;;;;;;;;;5120744;28;19920;-90
2021/11/02 00:34:40;;;;;;;;;;;;;;;;;;5120762;28;19919;-91
2021/11/02 00:37:06;;;;;;;;;;;;;;;;;;5120856;28;19920;-91
2021/11/02 00:39:32;;;;;;;;;;;;;;;;;;5119208;28;20402;-91
2021/11/02 00:41:59;;;;;;;;;;;;;;;;;;5121218;28;19988;-91
2021/11/02 00:44:25;;;;;;;;;;;;;;;;;;5120427;28;19932;-90
2021/11/02 00:46:52;;;;;;;;;;;;;;;;;;5120148;28;19935;-90
2021/11/02 00:49:18;;;;;;;;;;;;;;;;;;5119357;28;19981;-92
2021/11/02 00:51:45;;;;;;;;;;;;;;;;;;5119466;28;19963;-91
2021/11/02 00:54:11;;;;;;;;;;;;;;;;;;5117141;28;19955;-91
2021/11/02 00:56:37;;;;;;;;;;;;;;;;;;5118987;28;19942;-91
2021/11/02 00:59:03;;;;;;;;;;;;;;;;;;5119960;28;19949;-91
2021/11/02 01:01:30;;;;;;;;;;;;;;;;;;5119624;28;20362;-91
2021/11/02 01:03:56;;;;;;;;;;;;;;;;;;5119955;28;19965;-91
2021/11/02 01:06:23;;;;;;;;;;;;;;;;;;5116791;28;20014;-91
2021/11/02 01:08:49;;;;;;;;;;;;;;;;;;5118351;28;19923;-91
2021/11/02 01:11:17;;;;;;;;;;;;;;;;;;5118716;28;20324;-91
2021/11/02 01:13:43;;;;;;;;;;;;;;;;;;5120016;28;19963;-91
2021/11/02 01:16:09;;;;;;;;;;;;;;;;;;5120056;28;19935;-91
2021/11/02 01:18:36;;;;;;;;;;;;;;;;;;5119614;28;19935;-91
2021/11/02 01:21:02;;;;;;;;;;;;;;;;;;5117675;28;19928;-91
2021/11/02 01:23:28;;;;;;;;;;;;;;;;;;5119529;28;20066;-91
2021/11/02 01:25:55;;;;;;;;;;;;;;;;;;5120249;28;19935;-91
2021/11/02 01:28:21;;;;;;;;;;;;;;;;;;5119271;28;19935;-91
2021/11/02 01:30:47;;;;;;;;;;;;;;;;;;5118185;28;19924;-92
2021/11/02 01:33:13;;;;;;;;;;;;;;;;;;5117198;28;19920;-91
2021/11/02 01:35:40;;;;;;;;;;;;;;;;;;5117935;28;19920;-91
2021/11/02 01:38:06;;;;;;;;;;;;;;;;;;5118301;28;19923;-91
2021/11/02 01:40:32;;;;;;;;;;;;;;;;;;5117781;28;19920;-92
2021/11/02 01:42:59;;;;;;;;;;;;;;;;;;5118136;28;19924;-91
2021/11/02 01:45:27;;;;;;;;;;;;;;;;;;5117541;28;19928;-91
2021/11/02 01:47:53;;;;;;;;;;;;;;;;;;5119118;28;19927;-92
2021/11/02 01:50:19;;;;;;;;;;;;;;;;;;5119648;28;19935;-92
2021/11/02 01:52:45;;;;;;;;;;;;;;;;;;5119158;28;19928;-92
2021/11/02 01:55:12;;;;;;;;;;;;;;;;;;5118235;28;19919;-92
2021/11/02 01:57:38;;;;;;;;;;;;;;;;;;5119607;28;20010;-92
2021/11/02 02:00:06;;;;;;;;;;;;;;;;;;5119782;28;19923;-92
2021/11/02 02:02:33;;;;;;;;;;;;;;;;;;5124021;28;19927;-92
2021/11/02 02:04:59;;;;;;;;;;;;;;;;;;5123917;28;19926;-93
2021/11/02 02:07:25;;;;;;;;;;;;;;;;;;5123628;28;19976;-91
2021/11/02 02:09:51;;;;;;;;;;;;;;;;;;5122358;28;19928;-91
2021/11/02 02:12:19;;;;;;;;;;;;;;;;;;5122670;28;19927;-92
2021/11/02 02:14:46;;;;;;;;;;;;;;;;;;5121412;28;19979;-91
2021/11/02 02:17:12;;;;;;;;;;;;;;;;;;5122319;28;19957;-92
2021/11/02 02:19:39;;;;;;;;;;;;;;;;;;5123818;28;19923;-93
2021/11/02 02:22:05;;;;;;;;;;;;;;;;;;5123481;28;19935;-92
2021/11/02 02:24:31;;;;;;;;;;;;;;;;;;5122224;28;19920;-93
2021/11/02 02:26:58;;;;;;;;;;;;;;;;;;5121952;28;19919;-94
2021/11/02 02:29:24;;;;;;;;;;;;;;;;;;5122674;28;19928;-93
2021/11/02 02:31:50;;;;;;;;;;;;;;;;;;5122793;28;19927;-92
2021/11/02 02:34:17;;;;;;;;;;;;;;;;;;5122171;28;19955;-92
2021/11/02 02:36:43;;;;;;;;;;;;;;;;;;5122211;28;19919;-92
2021/11/02 02:39:10;;;;;;;;;;;;;;;;;;5121918;28;19919;-92
2021/11/02 02:41:36;;;;;;;;;;;;;;;;;;5121881;28;20287;-92
2021/11/02 02:44:02;;;;;;;;;;;;;;;;;;5122976;28;19919;-92
2021/11/02 02:46:29;;;;;;;;;;;;;;;;;;5122708;28;19972;-93
2021/11/02 02:48:55;;;;;;;;;;;;;;;;;;5122226;28;19923;-94
2021/11/02 02:51:21;;;;;;;;;;;;;;;;;;5122955;28;19927;-92
2021/11/02 02:53:49;;;;;;;;;;;;;;;;;;5120881;28;19949;-93
2021/11/02 02:56:15;;;;;;;;;;;;;;;;;;5120284;28;19949;-94
2021/11/02 02:58:42;;;;;;;;;;;;;;;;;;5122150;28;19941;-93
2021/11/02 03:01:08;;;;;;;;;;;;;;;;;;5122766;28;19934;-94
2021/11/02 03:03:35;;;;;;;;;;;;;;;;;;5122818;28;19924;-93
2021/11/02 03:06:02;;;;;;;;;;;;;;;;;;5112326;28;19919;-93
2021/11/02 03:08:28;;;;;;;;;;;;;;;;;;5121737;28;19949;-92
2021/11/02 03:10:55;;;;;;;;;;;;;;;;;;5122002;28;19927;-94
2021/11/02 03:13:21;;;;;;;;;;;;;;;;;;5120160;28;19927;-92
2021/11/02 03:15:54;;;;;;;;;;;;;;;;;;5120184;28;19944;-93
2021/11/02 03:18:30;;;;;;;;;;;;;;;;;;5121570;28;19927;-93
2021/11/02 03:51:15;;;;;;;;;;;;;;;;;;5112202;28;19934;-94
2021/11/02 03:59:49;;;;;;;;;;;;;;;;;;5111950;28;19968;-91
2021/11/02 04:24:30;;;;;;;;;;;;;;;;;;5117820;28;19930;-92
2021/11/02 04:27:30;;;;;;;;;;;;;;;;;;5119249;28;19934;-95
2021/11/02 04:36:03;;;;;;;;;;;;;;;;;;5119624;28;19927;-93
2021/11/02 05:47:27;;;;;;;;;;;;;;;;;;5056937;28;19986;-89
2021/11/02 05:50:11;;;;;;;;;;;;;;;;;;5108379;28;19963;-91
2021/11/02 05:58:09;;;;;;;;;;;;;;;;;;5109545;28;19927;-93
2021/11/02 06:00:41;;;;;;;;;;;;;;;;;;5118594;28;20367;-91
2021/11/02 06:03:28;;;;;;;;;;;;;;;;;;5119073;28;20050;-94
2021/11/02 06:05:59;;;;;;;;;;;;;;;;;;5117259;28;19919;-90
2021/11/02 06:23:21;;;;;;;;;;;;;;;;;;5035471;28;20008;-93
2021/11/02 06:28:05;;;;;;;;;;;;;;;;;;5118996;28;19923;-94
2021/11/02 06:30:37;;;;;;;;;;;;;;;;;;5116935;28;19927;-93
2021/11/02 06:33:08;;;;;;;;;;;;;;;;;;5118504;28;19934;-94
2021/11/02 06:35:38;;;;;;;;;;;;;;;;;;5119524;28;19928;-94
2021/11/02 06:43:45;;;;;;;;;;;;;;;;;;5072949;28;19975;-93
2021/11/02 06:49:10;;;;;;;;;;;;;;;;;;5121452;28;19941;-95
2021/11/02 06:52:10;;;;;;;;;;;;;;;;;;5121236;28;19927;-94
2021/11/02 06:57:45;;;;;;;;;;;;;;;;;;5121267;28;19976;-94
2021/11/02 07:19:28;;;;;;;;;;;;;;;;;;5121894;28;19918;-93
2021/11/02 07:22:04;;;;;;;;;;;;;;;;;;5121350;28;19927;-96
2021/11/02 07:24:35;;;;;;;;;;;;;;;;;;5122442;28;19927;-94
2021/11/02 07:27:13;;;;;;;;;;;;;;;;;;5123048;28;19982;-93
2021/11/02 08:46:38;;;;;;;;;;;;;;;;;;5118165;28;19914;-94
2021/11/02 08:49:04;;;;;;;;;;;;;;;;;;5120914;28;19923;-94
2021/11/02 08:51:30;;;;;;;;;;;;;;;;;;5120467;28;19923;-95
2021/11/02 08:53:56;;;;;;;;;;;;;;;;;;5120246;28;19931;-93
2021/11/02 08:56:23;;;;;;;;;;;;;;;;;;5119570;28;19942;-93
2021/11/02 08:58:49;;;;;;;;;;;;;;;;;;5119666;28;19947;-93
2021/11/02 09:01:17;;;;;;;;;;;;;;;;;;5118400;28;19923;-93
2021/11/02 09:03:43;;;;;;;;;;;;;;;;;;5119654;28;19928;-94
2021/11/02 09:06:09;;;;;;;;;;;;;;;;;;5113977;28;19927;-93
2021/11/02 09:08:35;;;;;;;;;;;;;;;;;;5119831;28;19928;-95
2021/11/02 09:11:02;;;;;;;;;;;;;;;;;;5119384;28;19920;-92
2021/11/02 09:13:28;;;;;;;;;;;;;;;;;;5119077;28;19919;-92
2021/11/02 09:15:56;;;;;;;;;;;;;;;;;;5120002;28;19941;-90
2021/11/02 09:18:22;;;;;;;;;;;;;;;;;;5119920;28;19927;-90
2021/11/02 09:20:48;;;;;;;;;;;;;;;;;;5118530;28;19950;-90
2021/11/02 09:23:14;;;;;;;;;;;;;;;;;;5118947;28;19927;-91
2021/11/02 09:25:41;;;;;;;;;;;;;;;;;;5119866;28;19919;-91
2021/11/02 09:28:07;;;;;;;;;;;;;;;;;;5119977;28;19924;-90
2021/11/02 09:30:33;;;;;;;;;;;;;;;;;;5118677;28;19920;-91
2021/11/02 09:32:59;;;;;;;;;;;;;;;;;;5118996;28;19919;-90
2021/11/02 09:35:26;;;;;;;;;;;;;;;;;;5119025;28;19941;-90
2021/11/02 09:37:53;;;;;;;;;;;;;;;;;;5119789;28;19927;-93
2021/11/02 09:40:19;;;;;;;;;;;;;;;;;;5117122;28;19987;-93
2021/11/02 09:42:47;;;;;;;;;;;;;;;;;;5118029;28;19919;-93
2021/11/02 09:45:14;;;;;;;;;;;;;;;;;;5118112;28;19927;-92
2021/11/02 09:47:40;;;;;;;;;;;;;;;;;;5117626;28;19952;-94
2021/11/02 09:50:06;;;;;;;;;;;;;;;;;;5119094;28;19920;-93
2021/11/02 09:52:33;;;;;;;;;;;;;;;;;;5119877;28;19919;-93
2021/11/02 09:55:00;;;;;;;;;;;;;;;;;;5119287;28;19927;-94
2021/11/02 09:57:28;;;;;;;;;;;;;;;;;;5118378;28;20018;-94
2021/11/02 09:59:54;;;;;;;;;;;;;;;;;;5119681;28;19927;-96
2021/11/02 10:02:22;;;;;;;;;;;;;;;;;;5120420;28;19957;-96
2021/11/02 10:04:55;;;;;;;;;;;;;;;;;;5119345;28;19936;-93
2021/11/02 10:07:24;;;;;;;;;;;;;;;;;;5118998;28;19919;-94
2021/11/02 10:09:50;;;;;;;;;;;;;;;;;;5118486;28;19920;-92
2021/11/02 10:12:17;;;;;;;;;;;;;;;;;;5118460;28;19919;-91
2021/11/02 10:14:45;;;;;;;;;;;;;;;;;;5118332;28;19965;-93
2021/11/02 10:17:13;;;;;;;;;;;;;;;;;;5118302;28;20267;-91
2021/11/02 10:19:40;;;;;;;;;;;;;;;;;;5115848;28;19942;-89
2021/11/02 10:22:06;;;;;;;;;;;;;;;;;;5115491;28;19972;-90
2021/11/02 10:24:32;;;;;;;;;;;;;;;;;;5121631;28;19928;-92
2021/11/02 10:26:59;;;;;;;;;;;;;;;;;;5120703;28;19980;-91
2021/11/02 10:29:25;;;;;;;;;;;;;;;;;;5123436;28;19939;-91
2021/11/02 10:31:52;;;;;;;;;;;;;;;;;;5123632;28;19920;-91
2021/11/02 10:34:18;;;;;;;;;;;;;;;;;;5122238;28;19927;-90
2021/11/02 10:36:44;;;;;;;;;;;;;;;;;;5121433;28;19928;-93
2021/11/02 10:39:12;;;;;;;;;;;;;;;;;;5121827;28;19957;-91
2021/11/02 10:41:43;;;;;;;;;;;;;;;;;;5121398;28;19924;-90
2021/11/02 10:44:09;;;;;;;;;;;;;;;;;;5118929;28;19926;-94
2021/11/02 10:46:37;;;;;;;;;;;;;;;;;;5119490;28;19920;-92
2021/11/02 10:49:03;;;;;;;;;;;;;;;;;;5122927;28;19975;-92
2021/11/02 10:51:29;;;;;;;;;;;;;;;;;;5122998;28;19954;-92
2021/11/02 10:53:55;;;;;;;;;;;;;;;;;;5122786;28;19988;-92
2021/11/02 10:56:22;;;;;;;;;;;;;;;;;;5123194;28;19928;-92
2021/11/02 10:58:48;;;;;;;;;;;;;;;;;;5123297;28;19924;-91
2021/11/02 11:01:14;;;;;;;;;;;;;;;;;;5123164;28;19927;-90
2021/11/02 11:03:41;;;;;;;;;;;;;;;;;;5122547;28;19920;-90
2021/11/02 11:06:07;;;;;;;;;;;;;;;;;;5122086;28;20418;-89
2021/11/02 11:08:34;;;;;;;;;;;;;;;;;;5121659;28;20495;-90
2021/11/02 11:11:01;;;;;;;;;;;;;;;;;;5122402;28;19935;-89
2021/11/02 11:13:28;;;;;;;;;;;;;;;;;;5122218;28;19939;-89
2021/11/02 11:15:55;;;;;;;;;;;;;;;;;;5122567;28;19927;-89
2021/11/02 11:18:21;;;;;;;;;;;;;;;;;;5121996;28;20447;-89
2021/11/02 11:20:47;;;;;;;;;;;;;;;;;;5122833;28;20382;-89
2021/11/02 11:23:13;;;;;;;;;;;;;;;;;;5122150;28;20676;-89
2021/11/02 11:25:39;;;;;;;;;;;;;;;;;;5120843;28;20607;-91
2021/11/02 11:28:06;;;;;;;;;;;;;;;;;;5121468;28;19920;-89
2021/11/02 11:30:32;;;;;;;;;;;;;;;;;;5121835;28;19940;-89
2021/11/02 11:32:58;;;;;;;;;;;;;;;;;;5121683;28;19919;-90
2021/11/02 11:35:24;;;;;;;;;;;;;;;;;;5122675;28;19957;-89
2021/11/02 11:37:51;;;;;;;;;;;;;;;;;;5122056;28;19953;-91
2021/11/02 11:40:18;;;;;;;;;;;;;;;;;;5120569;28;20362;-89
2021/11/02 11:42:44;;;;;;;;;;;;;;;;;;5118086;28;19943;-90
2021/11/02 11:45:10;;;;;;;;;;;;;;;;;;5122865;28;19989;-89
2021/11/02 11:47:36;;;;;;;;;;;;;;;;;;5121391;28;19939;-89
2021/11/02 11:50:03;;;;;;;;;;;;;;;;;;5118907;28;19973;-88
2021/11/02 11:52:29;;;;;;;;;;;;;;;;;;5117356;28;19988;-88
2021/11/02 11:54:55;;;;;;;;;;;;;;;;;;5114196;28;19931;-88
2021/11/02 11:57:29;;;;;;;82.00;21.10;;;;;;;;;;5118367;28;19965;-92
2021/11/02 11:59:55;;;;;;;;;;;;;;;;;;5120988;28;20297;-91
2021/11/02 12:02:21;;;;;;;;;;;;;;;;;;5121693;28;19953;-92
2021/11/02 12:04:47;;;;;;;;;;;;;;;;;;5119534;28;19950;-94
2021/11/02 12:07:23;;;;;;;77.23;19.30;;;;;;;;;;5112089;28;20322;-91
2021/11/02 12:09:50;;;;;;;74.57;17.47;;;;;;;;;;5121411;28;20426;-94
2021/11/02 12:12:17;;;;;;;73.07;17.80;;;;;;;;;;5120337;28;20293;-94
2021/11/02 12:14:50;;;;;;;73.77;16.90;;;;;;;;;;5120309;28;20432;-94
2021/11/02 12:17:17;;;;;;;72.17;16.87;;;;;;;;;;5120334;28;20432;-93
2021/11/02 12:19:58;;;;;;;73.43;17.40;;;;;;;;;;5121475;28;20495;-96
2021/11/02 12:22:30;;;;;;;71.50;15.73;;;;;;;;;;5113904;28;20578;-96
2021/11/02 12:25:04;;;;;;;73.70;16.63;;;;;;;;;;5120277;28;20485;-93
2021/11/02 12:27:36;;;;;;;69.00;14.73;;;;;;;;;;5119618;28;20454;-93
2021/11/02 12:32:45;;;;;;;66.70;13.33;;;;;;;;;;5068179;28;20470;-95
2021/11/02 12:35:20;;;;;;;68.37;14.10;;;;;;;;;;5070480;28;20442;-96
2021/11/02 12:37:51;;;;;;;66.90;13.47;;;;;;;;;;5076136;28;20520;-96
2021/11/02 12:40:18;;;;;;;67.83;13.70;;;;;;;;;;5066544;28;20454;-92
2021/11/02 12:42:45;;;;;;;66.37;13.07;;;;;;;;;;5066436;28;20494;-93
2021/11/02 12:45:14;;;;;;;66.33;13.67;;;;;;;;;;5066933;28;20826;-96
2021/11/02 12:47:44;;;;;;;65.90;12.97;;;;;;;;;;5071413;28;20452;-92
2021/11/02 12:50:11;;;;;;;65.70;12.67;;;;;;;;;;5069113;28;20447;-94
2021/11/02 12:52:39;;;;;;;66.63;13.13;;;;;;;;;;5070186;28;21202;-90
2021/11/02 12:55:07;;;;;;;66.57;12.60;;;;;;;;;;5068808;28;20473;-91
2021/11/02 12:57:34;;;;;;;66.87;12.37;;;;;;;;;;5068437;28;20499;-90
2021/11/02 13:00:02;;;;;;;67.13;13.17;;;;;;;;;;5068253;28;20470;-92
2021/11/02 13:02:31;;;;;;;65.50;12.00;;;;;;;;;;5067837;28;20485;-92
2021/11/02 13:05:00;;;;;;;66.40;12.60;;;;;;;;;;5069648;28;20439;-95
2021/11/02 13:07:27;;;;;;;64.90;12.47;;;;;;;;;;5068538;28;20434;-93
2021/11/02 13:09:55;;;;;;;66.80;13.00;;;;;;;;;;5065886;28;20460;-95
2021/11/02 13:12:26;;;;;;;65.10;12.13;;;;;;;;;;5067084;28;20440;-96
2021/11/02 13:14:53;;;;;;;65.10;11.87;;;;;;;;;;5047822;28;20766;-94
2021/11/02 13:17:23;;;;;;;65.90;13.20;;;;;;;;;;5068433;28;20601;-94
2021/11/02 13:19:51;;;;;;;65.40;12.57;;;;;;;;;;5066860;28;21025;-96
2021/11/02 13:22:19;;;;;;;64.50;12.40;;;;;;;;;;5077128;28;20473;-96
2021/11/02 13:24:59;;;;;;;65.40;11.97;;;;;;;;;;5069590;28;20456;-93
2021/11/02 13:27:32;;;;;;;65.10;12.30;;;;;;;;;;5066490;28;20449;-94
2021/11/02 13:30:21;;;;;;;64.87;12.27;;;;;;;;;;5067272;28;21043;-93
2021/11/02 13:32:53;;;;;;;63.67;11.23;;;;;;;;;;5108469;22;20490;-96
2021/11/02 13:35:36;;;;;;;66.20;12.57;;;;;;;;;;5078962;28;20446;-94
2021/11/02 13:38:17;;;;;;;64.50;11.70;;;;;;;;;;5078286;28;20474;-94
2021/11/02 13:40:45;;;;;;;65.70;12.50;;;;;;;;;;5077842;28;20933;-95
2021/11/02 13:45:54;;;;;;;65.10;11.53;;;;;;;;;;5117944;22;20543;-93
2021/11/02 13:48:21;;;;;;;65.37;12.23;;;;;;;;;;5078634;28;20476;-96
2021/11/02 13:50:47;;;;;;;66.77;12.67;;;;;;;;;;5078035;28;20454;-92
2021/11/02 13:53:14;;;;;;;66.77;13.10;;;;;;;;;;5080865;28;20429;-96
2021/11/02 13:55:42;;;;;;;66.03;12.50;;;;;;;;;;5074729;28;20475;-96
2021/11/02 13:58:10;;;;;;;66.87;13.10;;;;;;;;;;5093144;28;20484;-94
2021/11/02 14:00:36;;;;;;;67.37;13.17;;;;;;;;;;5090881;28;20447;-94
2021/11/02 14:03:05;;;;;;;67.60;13.13;;;;;;;;;;5084036;28;20492;-93
2021/11/02 14:05:32;;;;;;;66.77;12.70;;;;;;;;;;5086277;28;20860;-93
2021/11/02 14:08:12;;;;;;;68.47;13.60;;;;;;;;;;5082840;28;20445;-96
2021/11/02 14:10:50;;;;;;;68.17;13.47;;;;;;;;;;5086079;28;20451;-94
2021/11/02 14:13:36;;;;;;;68.90;14.00;;;;;;;;;;5081986;28;20441;-93
2021/11/02 14:16:02;;;;;;;71.20;13.50;;;;;;;;;;5082358;28;20474;-96
2021/11/02 14:21:12;;;;;;;70.37;13.73;;;;;;;;;;5087637;28;20456;-94
2021/11/02 14:23:40;;;;;;;68.87;14.60;;;;;;;;;;5083091;28;20492;-95
2021/11/02 14:26:22;;;;;;;70.00;15.00;;;;;;;;;;5084543;28;20450;-94
2021/11/02 14:28:51;;;;;;;67.00;13.43;;;;;;;;;;5083693;28;20506;-94
2021/11/02 14:34:43;;;;;;;70.80;15.73;;;;;;;;;;5057635;28;20759;-95
2021/11/02 14:37:11;;;;;;;71.30;16.13;;;;;;;;;;5060022;28;20434;-92
2021/11/02 14:39:52;;;;;;;70.80;15.67;;;;;;;;;;5061721;28;20470;-94
2021/11/02 14:42:33;;;;;;;69.40;14.33;;;;;;;;;;5062594;28;20438;-96
2021/11/02 14:45:01;;;;;;;70.40;15.67;;;;;;;;;;5062851;28;20497;-92
2021/11/02 14:47:33;;;;;;;69.60;16.10;;;;;;;;;;5062664;28;20438;-93
2021/11/02 14:49:59;;;;;;;69.00;14.80;;;;;;;;;;5055572;28;20477;-94
2021/11/02 14:52:26;;;;;;;68.17;13.80;;;;;;;;;;5073531;28;20440;-92
2021/11/02 14:54:53;;;;;;;68.67;14.80;;;;;;;;;;5079482;28;20493;-93
2021/11/02 14:57:49;;;;;;;67.60;13.90;;;;;;;;;;5079235;28;20438;-93
2021/11/02 15:00:40;;;;;;;68.47;13.90;;;;;;;;;;4974379;28;20441;-93
2021/11/02 15:03:15;;;;;;;67.40;12.73;;;;;;;;;;5068553;28;20487;-94
2021/11/02 15:05:42;;;;;;;67.60;13.37;;;;;;;;;;5080993;28;20466;-94
2021/11/02 15:08:13;;;;;;;67.10;13.53;;;;;;;;;;5077222;28;20438;-92
2021/11/02 15:10:43;;;;;;;67.90;13.57;;;;;;;;;;5072693;28;20459;-93
2021/11/02 15:13:11;;;;;;;69.70;14.30;;;;;;;;;;5080728;28;20469;-94
2021/11/02 15:15:39;;;;;;;71.40;13.73;;;;;;;;;;5063332;28;20481;-93
2021/11/02 15:18:06;;;;;;;68.50;14.30;;;;;;;;;;5080257;28;20438;-93
2021/11/02 15:20:32;;;;;;;66.87;12.80;;;;;;;;;;5079653;28;20443;-94
2021/11/02 15:22:59;;;;;;;67.07;13.47;;;;;;;;;;5078771;28;20484;-93
2021/11/02 15:25:26;;;;;;;67.70;13.53;;;;;;;;;;5065848;28;20842;-93
2021/11/02 15:27:58;;;;;;;69.47;14.43;;;;;;;;;;5078938;28;20450;-93
2021/11/02 15:30:25;;;;;;;69.83;15.00;;;;;;;;;;5081380;28;20446;-91
2021/11/02 15:32:52;;;;;;;69.27;14.70;;;;;;;;;;5075770;28;20454;-93
2021/11/02 15:35:19;;;;;;;70.07;15.70;;;;;;;;;;5060569;28;20433;-94
2021/11/02 15:37:47;;;;;;;69.43;15.33;;;;;;;;;;5077458;28;20445;-92
2021/11/02 15:40:15;;;;;;;71.47;15.60;;;;;;;;;;5080435;28;20434;-92
2021/11/02 15:42:42;;;;;;;73.40;16.80;;;;;;;;;;5076423;28;20490;-92
2021/11/02 15:45:10;;;;;;;73.07;16.90;;;;;;;;;;5061509;28;20470;-93
2021/11/02 15:47:39;;;;;;;72.50;16.63;;;;;;;;;;5080152;28;20490;-92
2021/11/02 15:50:09;;;;;;;71.57;17.30;;;;;;;;;;5080320;28;20430;-93
2021/11/02 15:52:36;;;;;;;72.60;16.67;;;;;;;;;;5078438;28;20441;-93
2021/11/02 15:55:04;;;;;;;71.87;16.40;;;;;;;;;;5079734;28;20464;-92
2021/11/02 15:57:37;;;;;;;72.47;15.57;;;;;;;;;;5076664;28;20442;-93
2021/11/02 16:00:06;;;;;;;75.90;16.10;;;;;;;;;;5072627;28;20503;-91
2021/11/02 16:02:36;;;;;;;72.30;16.90;;;;;;;;;;5077860;28;20445;-92
2021/11/02 16:05:03;;;;;;;71.30;15.40;;;;;;;;;;5081166;28;20461;-91
2021/11/02 16:07:32;;;;;;;70.13;14.00;;;;;;;;;;5078650;28;20286;-92
2021/11/02 16:09:59;;;;;;;68.00;13.50;;;;;;;;;;5078457;28;20475;-91
2021/11/02 16:12:27;;;;;;;69.50;12.90;;;;;;;;;;5079234;28;20435;-91
2021/11/02 16:15:01;;;;;;;68.13;13.10;;;;;;;;;;5077281;28;20457;-92
2021/11/02 16:17:31;;;;;;;67.70;12.70;;;;;;;;;;5079925;28;20287;-91
2021/11/02 16:19:59;;;;;;;67.67;12.57;;;;;;;;;;5077779;28;20303;-92
2021/11/02 16:22:26;;;;;;;69.60;12.80;;;;;;;;;;5079451;28;20455;-94
2021/11/02 16:25:08;;;;;;;70.45;14.30;;;;;;;;;;5072907;28;20311;-95
2021/11/02 16:27:35;;;;;;;70.50;12.37;;;;;;;;;;5078738;28;20348;-93
2021/11/02 16:30:03;;;;;;;71.70;14.00;;;;;;;;;;5070226;28;20299;-91
2021/11/02 16:32:29;;;;;;;;;;;;;;;;;;5059574;28;20406;-92
2021/11/02 16:34:56;;;;;;;;;;;;;;;;;;5080064;28;20201;-92
2021/11/02 16:37:25;;;;;;;;;;;;;;;;;;5080333;28;20170;-90
2021/11/02 16:40:02;;;;;;;;;;;;;;;;;;;;;
2021/11/02 16:42:30;;;;;;;78.75;18.35;;;;;;;;;;5078973;28;19928;-92
2021/11/02 16:44:56;;;;;;;;;;;;;;;;;;5078897;28;20315;-91
2021/11/02 16:47:23;;;;;;;;;;;;;;;;;;5079560;28;19968;-91
2021/11/02 16:49:49;;;;;;;;;;;;;;;;;;5079867;28;19924;-91
2021/11/02 16:52:15;;;;;;;;;;;;;;;;;;5078941;28;20203;-92
2021/11/02 16:54:42;;;;;;;;;;;;;;;;;;5077498;28;19946;-91
2021/11/02 16:57:08;;;;;;;;;;;;;;;;;;5078337;28;19932;-91
2021/11/02 16:59:35;;;;;;;;;;;;;;;;;;5079568;28;19924;-91
2021/11/02 17:02:01;;;;;;;;;;;;;;;;;;5079779;28;19936;-90
2021/11/02 17:04:27;;;;;;;;;;;;;;;;;;5077754;28;19933;-91
2021/11/02 17:06:53;;;;;;;;;;;;;;;;;;5077485;28;20445;-92
2021/11/02 17:09:20;;;;;;;;;;;;;;;;;;5078826;28;20362;-91
2021/11/02 17:11:46;;;;;;;;;;;;;;;;;;5076858;28;21196;-92
2021/11/02 17:14:12;;;;;;;;;;;;;;;;;;5076209;28;20699;-91
2021/11/02 17:16:38;;;;;;;;;;;;;;;;;;5071079;28;19982;-91
2021/11/02 17:19:06;;;;;;;;;;;;;;;;;;5078587;28;19924;-91
2021/11/02 17:21:32;;;;;;;;;;;;;;;;;;5078188;28;19932;-91
2021/11/02 17:23:58;;;;;;;;;;;;;;;;;;5079524;28;19955;-92
2021/11/02 17:26:24;;;;;;;;;;;;;;;;;;5079880;28;19924;-91
2021/11/02 17:28:51;;;;;;;;;;;;;;;;;;5078552;28;19925;-91
2021/11/02 17:31:17;;;;;;;;;;;;;;;;;;5076999;28;19947;-91
2021/11/02 17:33:43;;;;;;;;;;;;;;;;;;5078503;28;19929;-91
2021/11/02 17:36:10;;;;;;;;;;;;;;;;;;5070956;28;19932;-91
2021/11/02 17:38:36;;;;;;;;;;;;;;;;;;5078763;28;19924;-91
2021/11/02 17:41:04;;;;;;;;;;;;;;;;;;5077054;28;20454;-91
2021/11/02 17:43:31;;;;;;;;;;;;;;;;;;5076861;28;19933;-91
2021/11/02 17:45:57;;;;;;;;;;;;;;;;;;5082459;28;19932;-92
2021/11/02 17:48:23;;;;;;;;;;;;;;;;;;5087858;28;19924;-92
2021/11/02 17:50:49;;;;;;;;;;;;;;;;;;5077884;28;19925;-92
2021/11/02 17:53:15;;;;;;;;;;;;;;;;;;5086109;28;19980;-92
2021/11/02 17:55:42;;;;;;;;;;;;;;;;;;5080610;28;19947;-91
2021/11/02 17:58:08;;;;;;;;;;;;;;;;;;5083781;28;19924;-91
2021/11/02 18:00:34;;;;;;;;;;;;;;;;;;5088307;28;19932;-92
2021/11/02 18:03:00;;;;;;;;;;;;;;;;;;5089008;28;19932;-92
2021/11/02 18:05:27;;;;;;;;;;;;;;;;;;5083866;28;19933;-92
2021/11/02 18:07:53;;;;;;;;;;;;;;;;;;5078324;28;19925;-91
2021/11/02 18:10:19;;;;;;;;;;;;;;;;;;5081907;28;19946;-92
2021/11/02 18:12:45;;;;;;;;;;;;;;;;;;5082099;28;19925;-92
2021/11/02 18:15:12;;;;;;;;;;;;;;;;;;5084672;28;19924;-91
2021/11/02 18:17:38;;;;;;;;;;;;;;;;;;5083277;28;19924;-93
2021/11/02 18:20:04;;;;;;;;;;;;;;;;;;5082092;28;20407;-93
2021/11/02 18:22:30;;;;;;;;;;;;;;;;;;5076489;28;19956;-91
2021/11/02 18:24:56;;;;;;;;;;;;;;;;;;5086141;28;19932;-91
2021/11/02 18:27:23;;;;;;;;;;;;;;;;;;5081773;28;21053;-92
2021/11/02 18:29:50;;;;;;;;;;;;;;;;;;5076624;28;19939;-92
2021/11/02 18:32:19;;;;;;;;;;;;;;;;;;5080186;28;19933;-92
2021/11/02 18:37:28;;;;;;;;;;;;;;;;;;5054479;28;19924;-94
2021/11/02 18:39:54;;;;;;;;;;;;;;;;;;5079341;28;19947;-93
2021/11/02 18:42:21;;;;;;;;;;;;;;;;;;5079879;28;19955;-91
2021/11/02 18:44:47;;;;;;;;;;;;;;;;;;5081404;28;19932;-93
2021/11/02 18:47:16;;;;;;;;;;;;;;;;;;5088745;28;19932;-92
2021/11/02 18:49:42;;;;;;;;;;;;;;;;;;5091098;28;19932;-92
2021/11/02 18:52:08;;;;;;;;;;;;;;;;;;5091076;28;19933;-92
2021/11/02 18:54:34;;;;;;;;;;;;;;;;;;5087148;28;20006;-93
2021/11/02 18:57:00;;;;;;;;;;;;;;;;;;5089671;28;19924;-93
2021/11/02 18:59:27;;;;;;;;;;;;;;;;;;5083344;28;19924;-93
2021/11/02 19:01:53;;;;;;;;;;;;;;;;;;5088517;28;19924;-93
2021/11/02 19:04:19;;;;;;;;;;;;;;;;;;5083611;28;19932;-92
2021/11/02 19:06:45;;;;;;;;;;;;;;;;;;5069410;28;19998;-93
2021/11/02 19:09:12;;;;;;;;;;;;;;;;;;5074086;28;19933;-92
2021/11/02 19:11:38;;;;;;;;;;;;;;;;;;5067985;28;19955;-92
2021/11/02 19:14:10;;;;;;;;;;;;;;;;;;5071167;28;19932;-93
2021/11/02 19:16:36;;;;;;;;;;;;;;;;;;5061378;28;19943;-92
2021/11/02 19:19:02;;;;;;;;;;;;;;;;;;5080917;28;19947;-92
2021/11/02 19:21:28;;;;;;;;;;;;;;;;;;5089685;28;19932;-92
2021/11/02 19:23:55;;;;;;;;;;;;;;;;;;5087663;28;19932;-92
2021/11/02 19:26:21;;;;;;;;;;;;;;;;;;5071009;28;19932;-92
2021/11/02 19:28:49;;;;;;;;;;;;;;;;;;5079172;28;20364;-92
2021/11/02 19:31:16;;;;;;;;;;;;;;;;;;5079117;28;19933;-92
2021/11/02 19:33:42;;;;;;;;;;;;;;;;;;5077831;28;19932;-92
2021/11/02 19:36:08;;;;;;;;;;;;;;;;;;5074498;28;19948;-92
2021/11/02 19:38:35;;;;;;;;;;;;;;;;;;5058564;28;20047;-92
2021/11/02 19:41:01;;;;;;;;;;;;;;;;;;5060450;28;19925;-92
2021/11/02 19:43:27;;;;;;;;;;;;;;;;;;5060357;28;19929;-92
2021/11/02 19:45:54;;;;;;;;;;;;;;;;;;5066672;28;19986;-92
2021/11/02 19:48:20;;;;;;;;;;;;;;;;;;5062630;28;19929;-91
2021/11/02 19:50:47;;;;;;;;;;;;;;;;;;5078173;28;19986;-92
2021/11/02 19:53:13;;;;;;;;;;;;;;;;;;5086489;28;19932;-92
2021/11/02 19:55:39;;;;;;;;;;;;;;;;;;5079343;28;19932;-92
2021/11/02 19:58:05;;;;;;;;;;;;;;;;;;5063483;28;19932;-92
2021/11/02 20:00:32;;;;;;;;;;;;;;;;;;5057723;28;19971;-91
2021/11/02 20:02:58;;;;;;;;;;;;;;;;;;5067250;28;19933;-91
2021/11/02 20:05:24;;;;;;;;;;;;;;;;;;5068981;28;19946;-92
2021/11/02 20:07:50;;;;;;;;;;;;;;;;;;5068867;28;19925;-92
2021/11/02 20:10:17;;;;;;;;;;;;;;;;;;5069506;28;19924;-92
2021/11/02 20:12:44;;;;;;;;;;;;;;;;;;5061472;28;19931;-92
2021/11/02 20:15:10;;;;;;;;;;;;;;;;;;5086063;28;19956;-94
2021/11/02 20:17:36;;;;;;;;;;;;;;;;;;5084087;28;19932;-92
2021/11/02 20:20:03;;;;;;;;;;;;;;;;;;5075765;28;19925;-93
2021/11/02 20:22:29;;;;;;;;;;;;;;;;;;5071721;28;19947;-92
2021/11/02 20:24:55;;;;;;;;;;;;;;;;;;5074415;28;19925;-92
2021/11/02 20:27:25;;;;;;;;;;;;;;;;;;5079675;28;19932;-92
2021/11/02 20:29:51;;;;;;;;;;;;;;;;;;5086962;28;19932;-91
2021/11/02 20:32:17;;;;;;;;;;;;;;;;;;5081281;28;19924;-90
2021/11/02 20:34:43;;;;;;;;;;;;;;;;;;5086584;28;19924;-91
2021/11/02 20:37:10;;;;;;;;;;;;;;;;;;5088615;28;19977;-91
2021/11/02 20:39:36;;;;;;;;;;;;;;;;;;5086061;28;19928;-91
2021/11/02 20:42:02;;;;;;;;;;;;;;;;;;5086133;28;19952;-92
2021/11/02 20:44:29;;;;;;;;;;;;;;;;;;5085003;28;19935;-90
2021/11/02 20:46:55;;;;;;;;;;;;;;;;;;5084402;28;20468;-91